createdAt,value
2018-09-23T00:00:58.214Z,12.70
2018-09-23T00:03:26.868Z,12.70
2018-09-23T00:05:55.517Z,12.70
2018-09-23T00:08:24.167Z,12.70
2018-09-23T00:10:52.804Z,12.70
2018-09-23T00:13:21.448Z,12.70
2018-09-23T00:15:56.624Z,12.70
2018-09-23T00:18:25.264Z,12.70
2018-09-23T00:20:53.900Z,12.60
2018-09-23T00:23:22.548Z,12.50
2018-09-23T00:25:51.214Z,12.60
2018-09-23T00:28:19.889Z,12.60
2018-09-23T00:30:48.526Z,12.50
2018-09-23T00:33:17.196Z,12.50
2018-09-23T00:35:45.812Z,12.40
2018-09-23T00:38:14.482Z,12.40
2018-09-23T00:40:43.209Z,12.50
2018-09-23T00:43:11.837Z,12.40
2018-09-23T00:45:40.496Z,12.50
2018-09-23T00:48:09.151Z,12.40
2018-09-23T00:50:37.797Z,12.50
2018-09-23T00:53:06.607Z,12.40
2018-09-23T00:55:35.263Z,12.40
2018-09-23T00:58:03.899Z,12.40
2018-09-23T01:00:32.674Z,12.40
2018-09-23T01:03:01.301Z,12.40
2018-09-23T01:05:29.961Z,12.30
2018-09-23T01:07:58.608Z,12.40
2018-09-23T01:10:27.476Z,12.40
2018-09-23T01:12:56.314Z,12.40
2018-09-23T01:15:25.165Z,12.40
2018-09-23T01:17:54.049Z,12.40
2018-09-23T01:20:22.963Z,12.30
2018-09-23T01:22:51.651Z,12.40
2018-09-23T01:25:20.286Z,12.30
2018-09-23T01:27:48.959Z,12.40
2018-09-23T01:30:17.590Z,12.30
2018-09-23T01:32:46.301Z,12.30
2018-09-23T01:35:14.961Z,12.30
2018-09-23T01:37:43.621Z,12.40
2018-09-23T01:40:12.270Z,12.40
2018-09-23T01:42:41.023Z,12.30
2018-09-23T01:45:09.733Z,12.30
2018-09-23T01:47:38.389Z,12.30
2018-09-23T01:50:07.037Z,12.30
2018-09-23T01:52:35.685Z,12.20
2018-09-23T01:55:04.471Z,12.20
2018-09-23T01:57:33.130Z,12.20
2018-09-23T02:00:01.862Z,12.20
2018-09-23T02:02:30.519Z,12.10
2018-09-23T02:04:59.166Z,12.20
2018-09-23T02:07:27.816Z,12.10
2018-09-23T02:09:56.461Z,12.10
2018-09-23T02:12:25.118Z,12.10
2018-09-23T02:14:53.818Z,12.10
2018-09-23T02:17:22.541Z,12.10
2018-09-23T02:19:51.180Z,12.00
2018-09-23T02:22:19.824Z,12.10
2018-09-23T02:24:48.458Z,12.10
2018-09-23T02:27:17.350Z,12.10
2018-09-23T02:29:46.001Z,12.10
2018-09-23T02:32:14.695Z,12.10
2018-09-23T02:34:43.324Z,12.10
2018-09-23T02:37:11.984Z,12.00
2018-09-23T02:39:40.634Z,12.00
2018-09-23T02:42:09.296Z,12.00
2018-09-23T02:44:37.944Z,12.00
2018-09-23T02:47:06.824Z,12.00
2018-09-23T02:49:35.474Z,11.90
2018-09-23T02:52:04.154Z,11.90
2018-09-23T02:54:32.799Z,11.90
2018-09-23T02:57:01.534Z,11.90
2018-09-23T02:59:30.162Z,11.90
2018-09-23T03:01:58.798Z,11.90
2018-09-23T03:04:27.455Z,11.80
2018-09-23T03:06:56.072Z,11.80
2018-09-23T03:09:24.738Z,11.80
2018-09-23T03:11:53.528Z,11.80
2018-09-23T03:14:22.319Z,11.90
2018-09-23T03:16:51.090Z,11.80
2018-09-23T03:19:19.915Z,11.80
2018-09-23T03:21:48.543Z,11.90
2018-09-23T03:24:17.189Z,12.00
2018-09-23T03:26:45.847Z,11.90
2018-09-23T03:29:14.493Z,11.90
2018-09-23T03:31:43.151Z,11.90
2018-09-23T03:34:11.835Z,12.00
2018-09-23T03:36:40.475Z,12.00
2018-09-23T03:39:09.261Z,11.90
2018-09-23T03:41:37.887Z,11.80
2018-09-23T03:44:06.770Z,11.70
2018-09-23T03:46:35.396Z,11.70
2018-09-23T03:49:04.086Z,11.80
2018-09-23T03:51:32.732Z,11.70
2018-09-23T03:54:01.388Z,11.70
2018-09-23T03:56:30.042Z,11.80
2018-09-23T03:58:58.724Z,11.70
2018-09-23T04:01:27.393Z,11.70
2018-09-23T04:03:56.016Z,11.70
2018-09-23T04:06:24.658Z,11.70
2018-09-23T04:08:53.292Z,11.70
2018-09-23T04:11:21.941Z,11.60
2018-09-23T04:13:50.578Z,11.60
2018-09-23T04:16:19.225Z,11.50
2018-09-23T04:18:47.860Z,11.60
2018-09-23T04:21:16.524Z,11.50
2018-09-23T04:23:45.174Z,11.50
2018-09-23T04:26:13.918Z,11.40
2018-09-23T04:28:42.568Z,11.40
2018-09-23T04:31:11.220Z,11.40
2018-09-23T04:33:39.880Z,11.40
2018-09-23T04:36:08.532Z,11.30
2018-09-23T04:38:37.164Z,11.40
2018-09-23T04:41:05.808Z,11.40
2018-09-23T04:43:34.472Z,11.40
2018-09-23T04:46:03.130Z,11.40
2018-09-23T04:48:31.772Z,11.40
2018-09-23T04:51:00.429Z,11.40
2018-09-23T04:53:29.047Z,11.40
2018-09-23T04:55:57.707Z,11.40
2018-09-23T04:58:26.350Z,11.40
2018-09-23T05:00:55.010Z,11.40
2018-09-23T05:03:23.646Z,11.40
2018-09-23T05:05:52.290Z,11.40
2018-09-23T05:08:20.937Z,11.30
2018-09-23T05:10:49.609Z,11.40
2018-09-23T05:13:18.253Z,11.30
2018-09-23T05:15:46.904Z,11.40
2018-09-23T05:18:15.552Z,11.40
2018-09-23T05:20:44.184Z,11.40
2018-09-23T05:23:12.864Z,11.40
2018-09-23T05:25:41.499Z,11.40
2018-09-23T05:28:10.155Z,11.40
2018-09-23T05:30:38.775Z,11.40
2018-09-23T05:33:07.425Z,11.40
2018-09-23T05:35:36.069Z,11.40
2018-09-23T05:38:04.715Z,11.50
2018-09-23T05:40:33.438Z,11.40
2018-09-23T05:43:02.096Z,11.50
2018-09-23T05:45:30.751Z,11.50
2018-09-23T05:47:59.587Z,11.60
2018-09-23T05:50:28.241Z,11.50
2018-09-23T05:52:56.891Z,11.50
2018-09-23T05:55:25.537Z,11.60
2018-09-23T05:57:54.189Z,11.60
2018-09-23T06:00:22.830Z,11.60
2018-09-23T06:02:51.480Z,11.60
2018-09-23T06:05:20.130Z,11.60
2018-09-23T06:07:48.782Z,11.70
2018-09-23T06:10:17.428Z,11.70
2018-09-23T06:12:46.114Z,11.70
2018-09-23T06:15:14.740Z,11.80
2018-09-23T06:17:43.436Z,11.70
2018-09-23T06:20:12.068Z,11.80
2018-09-23T06:22:40.719Z,11.80
2018-09-23T06:25:09.439Z,11.80
2018-09-23T06:27:38.062Z,11.80
2018-09-23T06:30:06.886Z,11.80
2018-09-23T06:32:35.526Z,11.80
2018-09-23T06:35:04.165Z,11.80
2018-09-23T06:37:32.801Z,11.80
2018-09-23T06:40:01.458Z,11.80
2018-09-23T06:42:30.101Z,11.80
2018-09-23T06:44:58.754Z,11.80
2018-09-23T06:47:27.410Z,11.80
2018-09-23T06:49:56.081Z,11.80
2018-09-23T06:52:24.823Z,11.80
2018-09-23T06:54:53.463Z,11.80
2018-09-23T06:57:22.119Z,11.80
2018-09-23T06:59:50.957Z,11.80
2018-09-23T07:02:19.590Z,11.90
2018-09-23T07:04:48.254Z,11.90
2018-09-23T07:07:16.853Z,11.90
2018-09-23T07:09:45.553Z,12.00
2018-09-23T07:12:14.267Z,12.00
2018-09-23T07:14:42.877Z,12.00
2018-09-23T07:17:11.599Z,12.00
2018-09-23T07:19:40.263Z,12.10
2018-09-23T07:22:08.908Z,12.10
2018-09-23T07:24:37.569Z,12.20
2018-09-23T07:27:06.419Z,12.20
2018-09-23T07:29:35.061Z,12.30
2018-09-23T07:32:03.709Z,12.30
2018-09-23T07:34:32.373Z,12.30
2018-09-23T07:37:01.096Z,12.40
2018-09-23T07:39:29.740Z,12.40
2018-09-23T07:41:58.351Z,12.40
2018-09-23T07:44:27.023Z,12.30
2018-09-23T07:46:55.695Z,12.40
2018-09-23T07:49:24.332Z,12.50
2018-09-23T07:51:53.067Z,12.50
2018-09-23T07:54:21.709Z,12.50
2018-09-23T07:56:50.369Z,12.50
2018-09-23T07:59:19.039Z,12.50
2018-09-23T08:01:47.706Z,12.50
2018-09-23T08:04:16.336Z,12.50
2018-09-23T08:06:44.997Z,12.50
2018-09-23T08:09:13.686Z,12.60
2018-09-23T08:11:42.308Z,12.60
2018-09-23T08:14:11.266Z,12.60
2018-09-23T08:16:39.584Z,12.60
2018-09-23T08:19:08.683Z,12.70
2018-09-23T08:21:37.393Z,12.70
2018-09-23T08:24:06.041Z,12.70
2018-09-23T08:26:34.708Z,12.70
2018-09-23T08:29:03.337Z,12.70
2018-09-23T08:31:32.024Z,12.80
2018-09-23T08:34:00.847Z,12.80
2018-09-23T08:36:29.585Z,12.80
2018-09-23T08:38:58.261Z,12.80
2018-09-23T08:41:27.107Z,12.80
2018-09-23T08:43:55.940Z,12.90
2018-09-23T08:46:25.629Z,12.90
2018-09-23T08:48:54.265Z,12.90
2018-09-23T08:51:22.917Z,12.80
2018-09-23T08:53:51.594Z,12.90
2018-09-23T08:56:20.230Z,12.80
2018-09-23T08:58:48.870Z,12.80
2018-09-23T09:01:17.529Z,12.80
2018-09-23T09:03:46.216Z,12.90
2018-09-23T09:06:14.836Z,12.90
2018-09-23T09:08:43.496Z,13.00
2018-09-23T09:11:12.368Z,13.00
2018-09-23T09:13:41.020Z,13.10
2018-09-23T09:16:09.678Z,13.10
2018-09-23T09:18:38.577Z,13.20
2018-09-23T09:21:07.129Z,13.20
2018-09-23T09:23:35.933Z,13.20
2018-09-23T09:26:04.660Z,13.20
2018-09-23T09:28:33.283Z,13.10
2018-09-23T09:31:01.924Z,13.20
2018-09-23T09:33:30.606Z,13.20
2018-09-23T09:35:59.300Z,13.20
2018-09-23T09:38:27.970Z,13.30
2018-09-23T09:40:56.602Z,13.30
2018-09-23T09:43:25.291Z,13.40
2018-09-23T09:45:53.965Z,13.40
2018-09-23T09:48:22.738Z,13.40
2018-09-23T09:50:51.412Z,13.40
2018-09-23T09:53:20.055Z,13.50
2018-09-23T09:55:48.715Z,13.50
2018-09-23T09:58:17.573Z,13.50
2018-09-23T10:00:46.184Z,13.50
2018-09-23T10:03:14.890Z,13.50
2018-09-23T10:05:43.526Z,13.60
2018-09-23T10:08:12.194Z,13.60
2018-09-23T10:10:40.905Z,13.70
2018-09-23T10:13:09.540Z,13.60
2018-09-23T10:15:38.173Z,13.50
2018-09-23T10:18:06.829Z,13.60
2018-09-23T10:20:35.466Z,13.70
2018-09-23T10:23:04.160Z,13.80
2018-09-23T10:25:32.809Z,13.80
2018-09-23T10:28:01.497Z,13.80
2018-09-23T10:30:30.129Z,13.80
2018-09-23T10:32:58.783Z,13.80
2018-09-23T10:35:27.449Z,13.90
2018-09-23T10:37:56.065Z,13.90
2018-09-23T10:40:24.732Z,13.90
2018-09-23T10:42:53.372Z,13.90
2018-09-23T10:45:22.101Z,14.00
2018-09-23T10:47:50.761Z,14.00
2018-09-23T10:50:19.459Z,13.90
2018-09-23T10:52:48.131Z,13.90
2018-09-23T10:55:16.782Z,13.90
2018-09-23T10:57:45.439Z,13.90
2018-09-23T11:00:14.102Z,13.90
2018-09-23T11:02:42.759Z,13.90
2018-09-23T11:05:11.425Z,13.90
2018-09-23T11:07:40.085Z,13.90
2018-09-23T11:10:08.775Z,13.90
2018-09-23T11:12:37.440Z,14.00
2018-09-23T11:15:06.104Z,14.00
2018-09-23T11:17:34.732Z,13.90
2018-09-23T11:20:03.521Z,13.90
2018-09-23T11:22:32.183Z,13.90
2018-09-23T11:25:00.844Z,13.80
2018-09-23T11:27:29.554Z,13.90
2018-09-23T11:29:58.212Z,13.80
2018-09-23T11:32:26.851Z,13.80
2018-09-23T11:34:55.543Z,13.80
2018-09-23T11:37:24.186Z,13.80
2018-09-23T11:39:52.945Z,13.80
2018-09-23T11:42:21.591Z,13.70
2018-09-23T11:44:50.245Z,13.80
2018-09-23T11:47:18.933Z,13.80
2018-09-23T11:49:47.580Z,13.80
2018-09-23T11:52:16.216Z,13.80
2018-09-23T11:54:44.900Z,13.80
2018-09-23T11:57:13.600Z,13.70
2018-09-23T11:59:42.272Z,13.70
2018-09-23T12:02:11.000Z,13.60
2018-09-23T12:04:39.598Z,13.60
2018-09-23T12:07:08.237Z,13.50
2018-09-23T12:09:36.886Z,13.50
2018-09-23T12:12:05.688Z,13.40
2018-09-23T12:14:34.320Z,13.30
2018-09-23T12:17:02.963Z,13.30
2018-09-23T12:19:31.660Z,13.30
2018-09-23T12:22:00.352Z,13.30
2018-09-23T12:24:29.043Z,13.20
2018-09-23T12:26:57.707Z,13.20
2018-09-23T12:29:26.670Z,13.20
2018-09-23T12:31:55.332Z,13.10
2018-09-23T12:34:24.154Z,13.10
2018-09-23T12:36:52.841Z,13.10
2018-09-23T12:39:21.509Z,13.10
2018-09-23T12:41:50.139Z,13.00
2018-09-23T12:44:18.799Z,13.00
2018-09-23T12:46:47.553Z,13.00
2018-09-23T12:49:16.193Z,13.00
2018-09-23T12:51:44.851Z,13.00
2018-09-23T12:54:13.497Z,13.00
2018-09-23T12:56:42.165Z,13.00
2018-09-23T12:59:10.815Z,13.00
2018-09-23T13:01:39.458Z,13.00
2018-09-23T13:04:08.175Z,12.90
2018-09-23T13:06:36.907Z,12.90
2018-09-23T13:09:07.223Z,12.90
2018-09-23T13:11:35.895Z,12.70
2018-09-23T13:14:04.577Z,12.80
2018-09-23T13:16:33.223Z,12.70
2018-09-23T13:19:02.725Z,12.70
2018-09-23T13:21:31.385Z,12.70
2018-09-23T13:24:00.067Z,12.70
2018-09-23T13:26:28.713Z,12.70
2018-09-23T13:28:57.409Z,12.70
2018-09-23T13:31:26.050Z,12.70
2018-09-23T13:33:54.688Z,12.70
2018-09-23T13:36:23.357Z,12.70
2018-09-23T13:38:52.140Z,12.70
2018-09-23T13:41:21.212Z,12.70
2018-09-23T13:43:49.859Z,12.70
2018-09-23T13:46:18.576Z,12.60
2018-09-23T13:48:47.266Z,12.60
2018-09-23T13:51:15.896Z,12.60
2018-09-23T13:53:44.572Z,12.60
2018-09-23T13:56:13.350Z,12.50
2018-09-23T13:58:42.000Z,12.50
2018-09-23T14:01:10.652Z,12.50
2018-09-23T14:03:39.340Z,12.50
2018-09-23T14:06:08.008Z,12.40
2018-09-23T14:08:36.708Z,12.40
2018-09-23T14:11:05.368Z,12.40
2018-09-23T14:13:34.032Z,12.30
2018-09-23T14:16:02.676Z,12.40
2018-09-23T14:18:31.350Z,12.40
2018-09-23T14:20:59.992Z,12.40
2018-09-23T14:23:28.659Z,12.40
2018-09-23T14:25:57.321Z,12.30
2018-09-23T14:28:25.994Z,12.30
2018-09-23T14:30:54.675Z,12.20
2018-09-23T14:33:23.365Z,12.20
2018-09-23T14:35:52.036Z,12.10
2018-09-23T14:38:20.720Z,12.00
2018-09-23T14:40:49.575Z,12.10
2018-09-23T14:43:18.229Z,12.10
2018-09-23T14:45:46.922Z,12.00
2018-09-23T14:48:15.565Z,12.10
2018-09-23T14:50:44.249Z,12.20
2018-09-23T14:53:12.905Z,12.20
2018-09-23T14:55:41.565Z,12.20
2018-09-23T14:58:10.218Z,12.20
2018-09-23T15:00:38.943Z,12.30
2018-09-23T15:03:07.531Z,12.30
2018-09-23T15:05:36.180Z,12.20
2018-09-23T15:08:04.855Z,12.10
2018-09-23T15:10:33.570Z,12.10
2018-09-23T15:13:02.241Z,12.20
2018-09-23T15:15:30.918Z,12.20
2018-09-23T15:17:59.766Z,12.20
2018-09-23T15:20:28.426Z,12.20
2018-09-23T15:22:57.114Z,12.20
2018-09-23T15:25:25.800Z,12.20
2018-09-23T15:27:54.467Z,12.20
2018-09-23T15:30:23.133Z,12.20
2018-09-23T15:32:51.949Z,12.10
2018-09-23T15:35:20.627Z,12.20
2018-09-23T15:37:49.300Z,12.10
2018-09-23T15:40:17.987Z,12.00
2018-09-23T15:42:46.633Z,12.00
2018-09-23T15:45:15.323Z,12.00
2018-09-23T15:47:43.995Z,12.00
2018-09-23T15:50:12.658Z,12.00
2018-09-23T15:52:41.316Z,12.00
2018-09-23T15:55:09.975Z,11.90
2018-09-23T15:57:38.652Z,12.00
2018-09-23T16:00:07.336Z,11.90
2018-09-23T16:02:36.121Z,11.90
2018-09-23T16:05:04.818Z,11.80
2018-09-23T16:07:33.467Z,11.80
2018-09-23T16:10:02.148Z,11.80
2018-09-23T16:12:30.810Z,11.80
2018-09-23T16:14:59.487Z,11.90
2018-09-23T16:17:28.148Z,11.80
2018-09-23T16:19:56.828Z,11.70
2018-09-23T16:22:25.482Z,11.70
2018-09-23T16:24:54.171Z,11.70
2018-09-23T16:27:22.861Z,11.70
2018-09-23T16:29:51.525Z,11.70
2018-09-23T16:32:20.224Z,11.70
2018-09-23T16:34:48.901Z,11.70
2018-09-23T16:37:17.637Z,11.70
2018-09-23T16:39:46.304Z,11.70
2018-09-23T16:42:15.084Z,11.60
2018-09-23T16:44:43.716Z,11.60
2018-09-23T16:47:12.367Z,11.60
2018-09-23T16:49:41.054Z,11.70
2018-09-23T16:52:09.723Z,11.70
2018-09-23T16:54:38.498Z,11.60
2018-09-23T16:57:07.077Z,11.60
2018-09-23T16:59:35.704Z,11.50
2018-09-23T17:02:04.362Z,11.50
2018-09-23T17:04:33.075Z,11.50
2018-09-23T17:07:01.737Z,11.50
2018-09-23T17:09:30.593Z,11.50
2018-09-23T17:11:59.272Z,11.50
2018-09-23T17:14:27.937Z,11.50
2018-09-23T17:16:56.615Z,11.50
2018-09-23T17:19:25.277Z,11.50
2018-09-23T17:21:53.981Z,11.50
2018-09-23T17:24:22.633Z,11.50
2018-09-23T17:26:51.337Z,11.40
2018-09-23T17:29:19.981Z,11.40
2018-09-23T17:31:48.673Z,11.40
2018-09-23T17:34:17.344Z,11.40
2018-09-23T17:36:46.012Z,11.40
2018-09-23T17:39:14.666Z,11.30
2018-09-23T17:41:43.328Z,11.30
2018-09-23T17:44:12.037Z,11.30
2018-09-23T17:46:40.688Z,11.30
2018-09-23T17:49:09.328Z,11.30
2018-09-23T17:51:37.956Z,11.30
2018-09-23T17:54:06.637Z,11.30
2018-09-23T17:56:35.384Z,11.20
2018-09-23T17:59:04.081Z,11.30
2018-09-23T18:01:32.737Z,11.20
2018-09-23T18:04:01.552Z,11.20
2018-09-23T18:06:30.212Z,11.20
2018-09-23T18:08:58.903Z,11.20
2018-09-23T18:11:27.640Z,11.30
2018-09-23T18:13:56.344Z,11.30
2018-09-23T18:16:25.017Z,11.20
2018-09-23T18:18:53.678Z,11.20
2018-09-23T18:21:22.373Z,11.20
2018-09-23T18:23:51.086Z,11.20
2018-09-23T18:26:19.723Z,11.10
2018-09-23T18:28:48.388Z,11.10
2018-09-23T18:31:17.106Z,11.10
2018-09-23T18:33:45.782Z,11.00
2018-09-23T18:36:14.457Z,11.10
2018-09-23T18:38:43.169Z,11.10
2018-09-23T18:41:11.838Z,11.10
2018-09-23T18:43:40.546Z,11.00
2018-09-23T18:46:09.623Z,11.00
2018-09-23T18:48:38.247Z,10.90
2018-09-23T18:51:06.929Z,10.90
2018-09-23T18:53:35.641Z,10.90
2018-09-23T18:56:04.331Z,10.90
2018-09-23T19:01:08.271Z,10.80
2018-09-23T19:03:37.192Z,10.80
2018-09-23T19:06:05.993Z,10.80
2018-09-23T19:08:34.846Z,10.80
2018-09-23T19:11:03.521Z,10.70
2018-09-23T19:13:37.641Z,10.70
2018-09-23T19:16:11.853Z,10.70
2018-09-23T19:18:40.555Z,10.70
2018-09-23T19:21:09.232Z,10.60
2018-09-23T19:23:37.974Z,10.70
2018-09-23T19:26:06.897Z,10.60
2018-09-23T19:28:35.672Z,10.50
2018-09-23T19:31:04.472Z,10.50
2018-09-23T19:33:33.265Z,10.50
2018-09-23T19:36:01.936Z,10.60
2018-09-23T19:38:30.579Z,10.50
2018-09-23T19:40:59.341Z,10.50
2018-09-23T19:43:28.000Z,10.60
2018-09-23T19:45:56.796Z,10.60
2018-09-23T19:48:25.432Z,10.60
2018-09-23T19:50:54.394Z,10.60
2018-09-23T19:53:23.214Z,10.60
2018-09-23T19:55:52.036Z,10.60
2018-09-23T19:58:21.118Z,10.60
2018-09-23T20:00:49.939Z,10.50
2018-09-23T20:03:18.577Z,10.50
2018-09-23T20:05:47.228Z,10.50
2018-09-23T20:08:15.870Z,10.40
2018-09-23T20:10:44.540Z,10.40
2018-09-23T20:13:13.184Z,10.40
2018-09-23T20:15:41.879Z,10.50
2018-09-23T20:18:10.533Z,10.40
2018-09-23T20:20:39.186Z,10.40
2018-09-23T20:23:07.855Z,10.40
2018-09-23T20:25:36.504Z,10.40
2018-09-23T20:28:05.158Z,10.40
2018-09-23T20:30:33.844Z,10.30
2018-09-23T20:33:02.607Z,10.30
2018-09-23T20:35:31.253Z,10.30
2018-09-23T20:37:59.901Z,10.20
2018-09-23T20:40:28.572Z,10.20
2018-09-23T20:42:57.249Z,10.30
2018-09-23T20:45:25.903Z,10.20
2018-09-23T20:47:54.573Z,10.30
2018-09-23T20:50:23.235Z,10.30
2018-09-23T20:52:51.885Z,10.40
2018-09-23T20:55:20.547Z,10.30
2018-09-23T20:57:49.209Z,10.30
2018-09-23T21:00:17.873Z,10.30
2018-09-23T21:02:46.526Z,10.30
2018-09-23T21:05:15.193Z,10.30
2018-09-23T21:07:43.849Z,10.30
2018-09-23T21:10:12.773Z,10.30
2018-09-23T21:12:41.524Z,10.20
2018-09-23T21:15:10.459Z,10.20
2018-09-23T21:17:39.426Z,10.30
2018-09-23T21:20:08.337Z,10.20
2018-09-23T21:22:37.005Z,10.20
2018-09-23T21:25:05.675Z,10.20
2018-09-23T21:27:34.336Z,10.20
2018-09-23T21:30:02.984Z,10.20
2018-09-23T21:32:31.649Z,10.20
2018-09-23T21:35:00.362Z,10.30
2018-09-23T21:37:29.029Z,10.20
2018-09-23T21:39:57.897Z,10.20
2018-09-23T21:42:26.755Z,10.10
2018-09-23T21:44:55.723Z,10.10
2018-09-23T21:47:24.661Z,10.10
2018-09-23T21:49:53.353Z,10.10
2018-09-23T21:52:22.088Z,10.10
2018-09-23T21:54:50.756Z,10.10
2018-09-23T21:57:19.430Z,10.10
2018-09-23T21:59:48.072Z,10.00
2018-09-23T22:02:16.732Z,10.00
2018-09-23T22:04:45.404Z,10.10
2018-09-23T22:07:14.043Z,10.10
2018-09-23T22:09:42.786Z,10.10
2018-09-23T22:12:11.399Z,10.10
2018-09-23T22:14:40.055Z,10.10
2018-09-23T22:17:08.705Z,10.00
2018-09-23T22:19:37.330Z,10.00
2018-09-23T22:22:06.022Z,10.00
2018-09-23T22:24:34.716Z,10.10
2018-09-23T22:27:03.371Z,10.00
2018-09-23T22:29:32.063Z,10.00
2018-09-23T22:32:00.725Z,10.00
2018-09-23T22:34:29.385Z,10.00
2018-09-23T22:36:58.071Z,10.00
2018-09-23T22:39:26.762Z,10.00
2018-09-23T22:41:56.577Z,10.00
2018-09-23T22:44:25.515Z,10.00
2018-09-23T22:46:54.165Z,10.00
2018-09-23T22:49:24.753Z,10.10
2018-09-23T22:51:53.677Z,10.10
2018-09-23T22:54:22.749Z,10.00
2018-09-23T22:56:53.099Z,10.00
2018-09-23T22:59:22.221Z,10.00
2018-09-23T23:01:50.859Z,10.00
2018-09-23T23:04:19.571Z,10.00
2018-09-23T23:06:48.239Z,10.00
2018-09-23T23:09:17.101Z,10.00
2018-09-23T23:11:46.189Z,10.00
2018-09-23T23:14:14.824Z,9.90
2018-09-23T23:16:43.464Z,10.00
2018-09-23T23:19:12.129Z,10.00
2018-09-23T23:21:40.790Z,10.00
2018-09-23T23:24:09.458Z,10.00
2018-09-23T23:26:38.091Z,10.00
2018-09-23T23:29:06.779Z,9.90
2018-09-23T23:31:35.439Z,9.80
2018-09-23T23:34:04.100Z,9.80
2018-09-23T23:36:32.743Z,9.90
2018-09-23T23:39:01.402Z,9.80
2018-09-23T23:41:30.045Z,9.80
2018-09-23T23:43:58.702Z,9.80
2018-09-23T23:46:27.336Z,9.80
2018-09-23T23:48:55.980Z,9.80
2018-09-23T23:51:24.617Z,9.70
2018-09-23T23:53:53.272Z,9.80
2018-09-23T23:56:21.960Z,9.70
2018-09-23T23:58:50.691Z,9.80
